Time;durP1;ratioP1;P1;durP2;ratioP2;P2;SDS_P1;SDS_P2;PMS_P1;PMS_P2;Temp;Humidity;BMP_temperature;BMP_pressure;BME280_temperature;BME280_humidity;BME280_pressure;Samples;Min_cycle;Max_cycle;Signal;HPM_P1;HPM_P2
2024/02/04 00:02:14;;;;;;;5.18;4.07;;;8.90;99.90;;;;;;5080733;28;20224;-63
2024/02/04 00:04:40;;;;;;;4.60;3.92;;;8.80;99.90;;;;;;5081483;28;20228;-63
2024/02/04 00:07:07;;;;;;;8.70;4.00;;;8.80;99.90;;;;;;5078773;28;20207;-63
2024/02/04 00:09:34;;;;;;;5.53;4.20;;;8.70;99.90;;;;;;5076418;28;20204;-64
2024/02/04 00:12:03;;;;;;;5.72;4.03;;;8.70;99.90;;;;;;5074704;28;20727;-63
2024/02/04 00:14:30;;;;;;;7.82;4.25;;;8.70;99.90;;;;;;5074996;28;20205;-64
2024/02/04 00:16:57;;;;;;;6.07;3.53;;;8.70;99.90;;;;;;5075947;28;20201;-63
2024/02/04 00:19:23;;;;;;;8.20;4.10;;;8.70;99.90;;;;;;5075283;28;20201;-64
2024/02/04 00:21:50;;;;;;;7.72;4.35;;;8.70;99.90;;;;;;5076667;28;20715;-64
2024/02/04 00:24:18;;;;;;;5.65;4.68;;;8.60;99.90;;;;;;5079371;28;20201;-64
2024/02/04 00:26:45;;;;;;;7.72;4.47;;;8.60;99.90;;;;;;5086927;28;20292;-64
2024/02/04 00:29:13;;;;;;;10.32;5.05;;;8.60;99.90;;;;;;5081791;28;20204;-63
2024/02/04 00:31:39;;;;;;;5.03;4.53;;;8.60;99.90;;;;;;5080081;28;20602;-63
2024/02/04 00:34:06;;;;;;;7.00;5.00;;;8.60;99.90;;;;;;5080157;28;20207;-63
2024/02/04 00:36:32;;;;;;;10.15;5.32;;;8.50;99.90;;;;;;5080153;28;20299;-64
2024/02/04 00:38:59;;;;;;;9.35;5.35;;;8.50;99.90;;;;;;5080000;28;20248;-63
2024/02/04 00:41:26;;;;;;;8.57;5.50;;;8.50;99.90;;;;;;5082391;28;20697;-64
2024/02/04 00:43:53;;;;;;;6.05;4.97;;;8.40;99.90;;;;;;5082301;28;20215;-64
2024/02/04 00:46:21;;;;;;;5.53;4.90;;;8.40;99.90;;;;;;5080383;28;20278;-63
2024/02/04 00:48:48;;;;;;;8.45;5.57;;;8.30;99.90;;;;;;5083609;28;20197;-64
2024/02/04 00:51:16;;;;;;;7.55;5.53;;;8.30;99.90;;;;;;5079817;28;20197;-65
2024/02/04 00:53:43;;;;;;;6.65;5.10;;;8.30;99.90;;;;;;5079351;28;20220;-64
2024/02/04 00:56:11;;;;;;;8.30;5.35;;;8.20;99.90;;;;;;5082800;28;20201;-63
2024/02/04 00:58:37;;;;;;;9.00;5.60;;;8.20;99.90;;;;;;5081409;28;20706;-63
2024/02/04 01:01:04;;;;;;;8.98;6.40;;;8.10;99.90;;;;;;5081360;28;20223;-64
2024/02/04 01:03:33;;;;;;;8.02;5.88;;;8.10;99.90;;;;;;5080596;28;20228;-63
2024/02/04 01:06:00;;;;;;;7.93;5.93;;;8.10;99.90;;;;;;5079315;28;20205;-63
2024/02/04 01:08:27;;;;;;;8.68;7.05;;;8.10;99.90;;;;;;5081318;28;20287;-64
2024/02/04 01:10:53;;;;;;;8.20;6.18;;;8.00;99.90;;;;;;5079235;28;20205;-63
2024/02/04 01:13:20;;;;;;;15.23;6.53;;;8.10;99.90;;;;;;5079348;28;20231;-64
2024/02/04 01:15:47;;;;;;;8.85;6.35;;;8.10;99.90;;;;;;5079402;28;20211;-63
2024/02/04 01:18:14;;;;;;;11.15;5.75;;;8.00;99.90;;;;;;5077951;28;20231;-64
2024/02/04 01:20:42;;;;;;;7.88;6.10;;;8.00;99.90;;;;;;5078164;28;20205;-63
2024/02/04 01:23:08;;;;;;;9.75;7.13;;;8.00;99.90;;;;;;5077854;28;20308;-63
2024/02/04 01:25:35;;;;;;;6.85;5.60;;;8.10;99.90;;;;;;5078508;28;20236;-63
2024/02/04 01:28:02;;;;;;;9.45;6.20;;;8.10;99.90;;;;;;5077783;28;20197;-63
2024/02/04 01:30:30;;;;;;;9.30;5.85;;;8.00;99.90;;;;;;5078647;28;20201;-64
2024/02/04 01:32:57;;;;;;;6.93;5.13;;;8.00;99.90;;;;;;5077865;28;20225;-63
2024/02/04 01:35:23;;;;;;;7.20;5.68;;;8.00;99.90;;;;;;5077191;28;20208;-64
2024/02/04 01:37:52;;;;;;;6.63;5.68;;;8.00;99.90;;;;;;5078102;28;20227;-62
2024/02/04 01:40:18;;;;;;;16.15;6.35;;;8.00;99.90;;;;;;5076778;28;20213;-63
2024/02/04 01:42:45;;;;;;;13.25;6.35;;;8.10;99.90;;;;;;5077607;28;20729;-63
2024/02/04 01:45:12;;;;;;;9.55;6.55;;;8.10;99.90;;;;;;5077221;28;20690;-65
2024/02/04 01:47:39;;;;;;;11.00;7.05;;;8.10;99.90;;;;;;5077159;28;20208;-63
2024/02/04 01:50:07;;;;;;;10.90;7.50;;;8.20;99.90;;;;;;5077391;28;20205;-63
2024/02/04 01:52:36;;;;;;;10.65;6.95;;;8.20;99.90;;;;;;5083164;28;20241;-62
2024/02/04 01:55:06;;;;;;;12.02;7.50;;;8.20;99.90;;;;;;5085342;28;20212;-61
2024/02/04 01:57:34;;;;;;;11.82;7.43;;;8.20;99.90;;;;;;5080817;28;20201;-63
2024/02/04 02:00:02;;;;;;;12.13;7.85;;;8.20;99.90;;;;;;5077317;28;20197;-62
2024/02/04 02:02:29;;;;;;;12.07;7.30;;;8.30;99.90;;;;;;5076708;28;20221;-64
2024/02/04 02:04:56;;;;;;;14.05;8.60;;;8.30;99.90;;;;;;5077238;28;20212;-62
2024/02/04 02:07:24;;;;;;;11.75;8.65;;;8.30;99.90;;;;;;5077938;28;20205;-62
2024/02/04 02:09:51;;;;;;;12.63;8.23;;;8.40;99.90;;;;;;5076723;28;20197;-64
2024/02/04 02:12:23;;;;;;;12.82;8.18;;;8.40;99.90;;;;;;5077227;28;20229;-63
2024/02/04 02:14:59;;;;;;;14.48;8.23;;;8.50;99.90;;;;;;5076698;28;20189;-64
2024/02/04 02:17:34;;;;;;;9.07;7.45;;;8.60;99.90;;;;;;5076638;28;20185;-63
2024/02/04 02:20:05;;;;;;;10.88;7.82;;;8.60;99.90;;;;;;5076359;28;20185;-63
2024/02/04 02:22:44;;;;;;;11.52;8.10;;;8.60;99.90;;;;;;5079653;28;20221;-60
2024/02/04 02:25:14;;;;;;;13.07;7.90;;;8.60;99.90;;;;;;5080388;28;20272;-63
2024/02/04 02:27:48;;;;;;;13.43;8.25;;;8.50;99.90;;;;;;5077793;28;20667;-63
2024/02/04 02:30:15;;;;;;;10.15;7.85;;;8.50;99.90;;;;;;5076909;28;20193;-65
2024/02/04 02:32:42;;;;;;;12.40;8.90;;;8.60;99.90;;;;;;5076205;28;20225;-63
2024/02/04 02:35:09;;;;;;;10.60;8.45;;;8.60;99.90;;;;;;5075812;28;20554;-63
2024/02/04 02:37:43;;;;;;;13.38;8.63;;;8.60;99.90;;;;;;5075916;28;20209;-64
2024/02/04 02:40:21;;;;;;;15.27;8.63;;;8.70;99.90;;;;;;5075606;28;20185;-63
2024/02/04 02:42:49;;;;;;;11.13;7.97;;;8.70;99.90;;;;;;5075372;28;20236;-64
2024/02/04 02:45:17;;;;;;;12.60;7.63;;;8.70;99.90;;;;;;5075886;28;20196;-64
2024/02/04 02:47:46;;;;;;;11.65;8.35;;;8.80;99.90;;;;;;5075738;28;20211;-63
2024/02/04 02:50:14;;;;;;;12.77;8.15;;;8.70;99.90;;;;;;5075809;28;20203;-64
2024/02/04 02:52:41;;;;;;;12.30;8.43;;;8.70;99.90;;;;;;5074288;28;20308;-63
2024/02/04 02:55:08;;;;;;;12.80;8.02;;;8.70;99.90;;;;;;5076123;28;20197;-64
2024/02/04 02:57:36;;;;;;;13.02;7.90;;;8.60;99.90;;;;;;5075975;28;20325;-62
2024/02/04 03:00:05;;;;;;;14.82;7.55;;;8.60;99.90;;;;;;5075772;28;20257;-64
2024/02/04 03:02:32;;;;;;;11.98;8.10;;;8.60;99.90;;;;;;5083481;22;20312;-64
2024/02/04 03:04:59;;;;;;;16.30;10.18;;;8.60;99.90;;;;;;5053894;28;20223;-63
2024/02/04 03:07:26;;;;;;;11.80;6.80;;;8.60;99.90;;;;;;5054537;28;20296;-64
2024/02/04 03:09:53;;;;;;;10.18;7.80;;;8.60;99.90;;;;;;5053668;28;20221;-64
2024/02/04 03:12:20;;;;;;;11.02;8.00;;;8.70;99.90;;;;;;5053870;28;20217;-63
2024/02/04 03:14:48;;;;;;;12.27;8.25;;;8.60;99.90;;;;;;5053963;28;20568;-64
2024/02/04 03:17:15;;;;;;;11.07;7.40;;;8.60;99.90;;;;;;5053949;28;20202;-63
2024/02/04 03:19:43;;;;;;;13.38;7.88;;;8.60;99.90;;;;;;5054197;28;20295;-63
2024/02/04 03:22:09;;;;;;;12.50;9.50;;;8.50;99.90;;;;;;5053616;28;20572;-64
2024/02/04 03:24:36;;;;;;;14.73;8.77;;;8.50;99.90;;;;;;5053953;28;20212;-64
2024/02/04 03:27:03;;;;;;;11.13;7.82;;;8.50;99.90;;;;;;5053940;28;20197;-64
2024/02/04 03:29:30;;;;;;;9.45;8.05;;;8.50;99.90;;;;;;5054181;28;20198;-63
2024/02/04 03:31:58;;;;;;;11.35;7.75;;;8.50;99.90;;;;;;5053872;28;20222;-63
2024/02/04 03:34:25;;;;;;;11.23;8.25;;;8.50;99.90;;;;;;5053579;28;20233;-63
2024/02/04 03:36:52;;;;;;;11.82;8.50;;;8.50;99.90;;;;;;5053519;28;20627;-65
2024/02/04 03:39:18;;;;;;;10.52;7.82;;;8.50;99.90;;;;;;5052973;28;20227;-64
2024/02/04 03:41:45;;;;;;;10.68;7.60;;;8.50;99.90;;;;;;5053252;28;20229;-64
2024/02/04 03:44:12;;;;;;;9.35;7.07;;;8.50;99.90;;;;;;5052931;28;20679;-63
2024/02/04 03:46:39;;;;;;;9.65;7.43;;;8.50;99.90;;;;;;5053538;28;20235;-63
2024/02/04 03:49:08;;;;;;;10.90;7.75;;;8.50;99.90;;;;;;5053488;28;20245;-63
2024/02/04 03:51:35;;;;;;;8.25;5.75;;;8.50;99.90;;;;;;5053374;28;20224;-65
2024/02/04 03:54:01;;;;;;;9.48;7.55;;;8.50;99.90;;;;;;5053918;28;20216;-63
2024/02/04 03:56:28;;;;;;;13.00;7.70;;;8.50;99.90;;;;;;5053768;28;20212;-63
2024/02/04 03:58:55;;;;;;;12.35;6.57;;;8.50;99.90;;;;;;5054298;28;20232;-64
2024/02/04 04:01:22;;;;;;;14.40;7.70;;;8.50;99.90;;;;;;5054622;28;20237;-64
2024/02/04 04:03:48;;;;;;;10.00;7.45;;;8.50;99.90;;;;;;5053837;28;20233;-61
2024/02/04 04:06:16;;;;;;;12.73;7.72;;;8.50;99.90;;;;;;5053739;28;20205;-62
2024/02/04 04:08:43;;;;;;;13.43;8.50;;;8.50;99.90;;;;;;5054106;28;20296;-62
2024/02/04 04:13:07;;;;;;;10.50;7.10;;;8.40;99.90;;;;;;5091592;28;21035;-62
2024/02/04 04:15:33;;;;;;;12.32;7.07;;;8.40;99.90;;;;;;5091496;28;20196;-63
2024/02/04 04:18:00;;;;;;;12.50;7.30;;;8.40;99.90;;;;;;5091233;28;20197;-64
2024/02/04 04:20:27;;;;;;;11.20;6.40;;;8.30;99.90;;;;;;5091339;28;20196;-63
2024/02/04 04:22:54;;;;;;;11.60;7.38;;;8.30;99.90;;;;;;5090998;28;20216;-67
2024/02/04 04:25:21;;;;;;;12.38;6.72;;;8.20;99.90;;;;;;5091640;28;20287;-65
2024/02/04 04:27:47;;;;;;;12.90;6.85;;;8.30;99.90;;;;;;5090983;28;20204;-64
2024/02/04 04:30:16;;;;;;;11.68;6.95;;;8.20;99.90;;;;;;5090869;28;20197;-64
2024/02/04 04:32:42;;;;;;;10.35;7.55;;;8.30;99.90;;;;;;5090258;28;20220;-63
2024/02/04 04:35:09;;;;;;;7.95;6.78;;;8.20;99.90;;;;;;5090542;28;20200;-64
2024/02/04 04:37:36;;;;;;;10.20;7.20;;;8.20;99.90;;;;;;5090826;28;20197;-64
2024/02/04 04:40:02;;;;;;;10.57;6.05;;;8.20;99.90;;;;;;5090432;28;20208;-63
2024/02/04 04:42:29;;;;;;;11.45;7.05;;;8.20;99.90;;;;;;5089981;28;20216;-64
2024/02/04 04:44:56;;;;;;;10.10;7.40;;;8.20;99.90;;;;;;5089975;28;20200;-63
2024/02/04 04:47:24;;;;;;;10.90;7.43;;;8.10;99.90;;;;;;5090340;28;20207;-61
2024/02/04 04:49:51;;;;;;;12.25;7.55;;;8.10;99.90;;;;;;5090190;28;20197;-64
2024/02/04 04:52:18;;;;;;;11.45;7.78;;;8.10;99.90;;;;;;5089779;28;20224;-63
2024/02/04 04:54:44;;;;;;;12.85;8.63;;;8.10;99.90;;;;;;5089882;28;20196;-63
2024/02/04 04:57:11;;;;;;;13.77;6.78;;;8.10;99.90;;;;;;5089710;28;20569;-63
2024/02/04 04:59:38;;;;;;;14.48;8.77;;;8.20;99.90;;;;;;5091396;28;20201;-64
2024/02/04 05:02:05;;;;;;;13.23;7.20;;;8.20;99.90;;;;;;5101648;22;20233;-64
2024/02/04 05:04:33;;;;;;;11.27;8.10;;;8.20;99.90;;;;;;5070237;28;20227;-63
2024/02/04 05:07:00;;;;;;;12.80;7.93;;;8.20;99.90;;;;;;5070446;28;20211;-63
2024/02/04 05:09:26;;;;;;;13.63;7.32;;;8.10;99.90;;;;;;5070180;28;20201;-63
2024/02/04 05:11:53;;;;;;;11.75;7.68;;;8.10;99.90;;;;;;5069907;28;20217;-63
2024/02/04 05:14:21;;;;;;;12.82;8.52;;;8.10;99.90;;;;;;5070016;28;20211;-63
2024/02/04 05:16:48;;;;;;;12.63;8.52;;;8.10;99.90;;;;;;5070441;28;20295;-62
2024/02/04 05:19:14;;;;;;;10.90;8.35;;;8.10;99.90;;;;;;5069960;28;20205;-63
2024/02/04 05:21:42;;;;;;;15.10;9.40;;;8.10;99.90;;;;;;5070238;28;20227;-63
2024/02/04 05:24:09;;;;;;;11.30;8.55;;;8.10;99.90;;;;;;5058631;28;20228;-62
2024/02/04 05:26:36;;;;;;;14.55;8.88;;;8.10;99.90;;;;;;5057227;28;20224;-64
2024/02/04 05:29:03;;;;;;;11.40;8.20;;;8.20;99.90;;;;;;5056898;28;20582;-63
2024/02/04 05:31:29;;;;;;;13.52;8.50;;;8.20;99.90;;;;;;5056889;28;20230;-63
2024/02/04 05:33:57;;;;;;;15.45;9.88;;;8.30;99.90;;;;;;5056412;28;20272;-63
2024/02/04 05:36:24;;;;;;;11.82;8.82;;;8.30;99.90;;;;;;5056699;28;20206;-63
2024/02/04 05:38:52;;;;;;;15.35;9.93;;;8.30;99.90;;;;;;5056102;28;20205;-64
2024/02/04 05:41:18;;;;;;;12.77;8.77;;;8.20;99.90;;;;;;5056019;28;20221;-64
2024/02/04 05:43:45;;;;;;;16.65;9.27;;;8.30;99.90;;;;;;5056014;28;20590;-64
2024/02/04 05:46:14;;;;;;;14.85;9.25;;;8.20;99.90;;;;;;5055584;28;20691;-64
2024/02/04 05:48:44;;;;;;;14.40;8.48;;;8.20;99.90;;;;;;5055491;28;20667;-64
2024/02/04 05:51:11;;;;;;;8.93;6.47;;;8.20;99.90;;;;;;5055918;28;20699;-64
2024/02/04 05:53:37;;;;;;;9.70;6.38;;;8.20;99.90;;;;;;5055871;28;20205;-63
2024/02/04 05:56:06;;;;;;;12.40;6.22;;;8.30;99.90;;;;;;5056213;28;20197;-61
2024/02/04 05:58:32;;;;;;;9.45;6.13;;;8.30;99.90;;;;;;5056210;28;20577;-64
2024/02/04 06:00:59;;;;;;;8.15;5.03;;;8.30;99.90;;;;;;5055910;28;20263;-63
2024/02/04 06:03:26;;;;;;;9.32;6.10;;;8.40;99.90;;;;;;5056151;28;20186;-63
2024/02/04 06:05:52;;;;;;;8.90;5.35;;;8.40;99.90;;;;;;5056247;28;20206;-63
2024/02/04 06:08:19;;;;;;;7.45;5.38;;;8.40;99.90;;;;;;5055856;28;20293;-64
2024/02/04 06:10:46;;;;;;;6.90;5.70;;;8.40;99.90;;;;;;5055720;28;20668;-65
2024/02/04 06:13:15;;;;;;;8.43;5.70;;;8.40;99.90;;;;;;5055789;28;20221;-63
2024/02/04 06:15:41;;;;;;;6.88;5.80;;;8.40;99.90;;;;;;5055888;28;20671;-63
2024/02/04 06:18:08;;;;;;;6.22;5.22;;;8.40;99.90;;;;;;5056112;28;20212;-63
2024/02/04 06:20:35;;;;;;;9.88;5.10;;;8.40;99.90;;;;;;5056353;28;20209;-64
2024/02/04 06:23:01;;;;;;;6.85;4.55;;;8.40;99.90;;;;;;5055771;28;20198;-63
2024/02/04 06:25:27;;;;;;;5.37;4.27;;;8.40;99.90;;;;;;5055823;28;20201;-63
2024/02/04 06:27:54;;;;;;;8.18;4.80;;;8.40;99.90;;;;;;5056517;28;20220;-64
2024/02/04 06:30:22;;;;;;;7.10;4.60;;;8.40;99.90;;;;;;5065729;28;20213;-64
2024/02/04 06:32:49;;;;;;;5.75;4.47;;;8.40;99.90;;;;;;5068118;28;20702;-63
2024/02/04 06:35:16;;;;;;;6.15;4.07;;;8.40;99.90;;;;;;5066670;28;20212;-63
2024/02/04 06:37:43;;;;;;;5.60;3.55;;;8.40;99.90;;;;;;5068161;28;20293;-63
2024/02/04 06:40:11;;;;;;;6.63;3.40;;;8.40;99.90;;;;;;5060715;28;20259;-63
2024/02/04 06:42:38;;;;;;;7.70;4.47;;;8.40;99.90;;;;;;5058366;28;20222;-64
2024/02/04 06:45:05;;;;;;;5.35;3.35;;;8.40;99.90;;;;;;5055950;28;20209;-64
2024/02/04 06:47:33;;;;;;;6.55;3.80;;;8.40;99.90;;;;;;5054553;28;20198;-63
2024/02/04 06:50:03;;;;;;;6.72;3.53;;;8.30;99.90;;;;;;5054614;28;20213;-63
2024/02/04 06:52:29;;;;;;;3.35;3.05;;;8.30;99.90;;;;;;5054582;28;20317;-63
2024/02/04 06:54:56;;;;;;;4.40;2.90;;;8.30;99.90;;;;;;5054494;28;20201;-62
2024/02/04 06:57:23;;;;;;;4.53;2.45;;;8.30;99.90;;;;;;5054640;28;20204;-64
2024/02/04 06:59:50;;;;;;;3.25;2.40;;;8.30;99.90;;;;;;5054684;28;20591;-63
2024/02/04 07:02:16;;;;;;;4.13;2.70;;;8.30;99.90;;;;;;5055218;28;20741;-63
2024/02/04 07:04:44;;;;;;;6.32;3.10;;;8.30;99.90;;;;;;5063196;28;20205;-62
2024/02/04 07:07:11;;;;;;;5.53;2.75;;;8.30;99.90;;;;;;5062217;28;20687;-64
2024/02/04 07:09:38;;;;;;;3.03;2.42;;;8.30;99.90;;;;;;5061011;28;20209;-62
2024/02/04 07:12:05;;;;;;;6.20;3.65;;;8.30;99.90;;;;;;5062766;28;20221;-63
2024/02/04 07:14:32;;;;;;;4.15;2.92;;;8.30;99.90;;;;;;5063467;28;20216;-63
2024/02/04 07:16:59;;;;;;;8.13;3.40;;;8.30;99.90;;;;;;5062521;28;20581;-63
2024/02/04 07:19:26;;;;;;;8.95;3.03;;;8.20;99.90;;;;;;5062816;28;20198;-63
2024/02/04 07:21:54;;;;;;;4.45;3.38;;;8.30;99.90;;;;;;5062270;28;20222;-63
2024/02/04 07:24:21;;;;;;;4.53;2.88;;;8.30;99.90;;;;;;5060628;28;20212;-63
2024/02/04 07:26:47;;;;;;;7.78;3.28;;;8.20;99.90;;;;;;5060743;28;20265;-62
2024/02/04 07:29:14;;;;;;;3.60;2.88;;;8.20;99.90;;;;;;5062863;28;20210;-62
2024/02/04 07:31:41;;;;;;;5.10;3.78;;;8.20;99.90;;;;;;5060696;28;20229;-63
2024/02/04 07:34:08;;;;;;;8.48;3.30;;;8.20;99.90;;;;;;5060338;28;20209;-62
2024/02/04 07:36:35;;;;;;;4.63;2.75;;;8.20;99.90;;;;;;5062271;28;20208;-63
2024/02/04 07:39:04;;;;;;;2.88;2.58;;;8.30;99.90;;;;;;5063128;28;20213;-63
2024/02/04 07:41:31;;;;;;;6.97;3.00;;;8.30;99.90;;;;;;5060109;28;20308;-62
2024/02/04 07:43:58;;;;;;;4.70;2.72;;;8.30;99.90;;;;;;5060177;28;20208;-64
2024/02/04 07:46:25;;;;;;;5.95;3.40;;;8.40;99.90;;;;;;5059856;28;20205;-64
2024/02/04 07:48:51;;;;;;;5.43;3.40;;;8.50;99.90;;;;;;5059149;28;20205;-62
2024/02/04 07:51:18;;;;;;;4.93;3.00;;;8.50;99.90;;;;;;5057343;28;20225;-64
2024/02/04 07:53:45;;;;;;;2.60;2.00;;;8.60;99.90;;;;;;5055204;28;20228;-64
2024/02/04 07:56:13;;;;;;;7.20;2.67;;;8.60;99.90;;;;;;5054503;28;20205;-63
2024/02/04 07:58:40;;;;;;;4.05;2.10;;;8.70;99.90;;;;;;5054571;28;20201;-64
2024/02/04 08:01:07;;;;;;;3.35;2.25;;;8.70;99.90;;;;;;5054001;28;20329;-64
2024/02/04 08:03:33;;;;;;;2.67;2.10;;;8.80;99.90;;;;;;5053824;28;20584;-64
2024/02/04 08:06:00;;;;;;;4.65;2.38;;;8.80;99.90;;;;;;5054478;28;20228;-64
2024/02/04 08:08:27;;;;;;;5.82;2.42;;;8.80;99.90;;;;;;5053984;28;20216;-62
2024/02/04 08:10:53;;;;;;;5.70;2.35;;;8.80;99.90;;;;;;5054250;28;20205;-63
2024/02/04 08:13:21;;;;;;;2.95;1.92;;;8.90;99.90;;;;;;5054552;28;20221;-62
2024/02/04 08:15:48;;;;;;;2.53;2.03;;;8.90;99.90;;;;;;5054302;28;20281;-64
2024/02/04 08:18:15;;;;;;;4.45;2.60;;;8.90;99.90;;;;;;5054093;28;20202;-63
2024/02/04 08:20:42;;;;;;;4.43;2.47;;;9.00;99.90;;;;;;5054773;28;20202;-64
2024/02/04 08:23:08;;;;;;;3.30;1.90;;;9.00;99.90;;;;;;5054842;28;20548;-63
2024/02/04 08:25:36;;;;;;;5.53;2.05;;;9.00;99.90;;;;;;5054712;28;20206;-63
2024/02/04 08:28:03;;;;;;;2.20;1.80;;;9.00;99.90;;;;;;5053691;28;20578;-62
2024/02/04 08:30:31;;;;;;;4.03;1.45;;;9.00;99.90;;;;;;5053293;28;20208;-63
2024/02/04 08:32:58;;;;;;;3.05;1.90;;;9.10;99.90;;;;;;5053469;28;20221;-64
2024/02/04 08:35:25;;;;;;;2.33;1.42;;;9.10;99.90;;;;;;5053667;28;20208;-63
2024/02/04 08:37:51;;;;;;;3.87;1.50;;;9.10;99.90;;;;;;5053180;28;20204;-63
2024/02/04 08:40:18;;;;;;;2.60;1.50;;;9.10;99.90;;;;;;5053206;28;20444;-62
2024/02/04 08:42:45;;;;;;;2.67;1.40;;;9.10;99.90;;;;;;5053269;28;20458;-62
2024/02/04 08:45:12;;;;;;;5.33;1.60;;;9.20;99.90;;;;;;5053377;28;20531;-63
2024/02/04 08:47:40;;;;;;;2.80;1.30;;;9.20;99.90;;;;;;5053262;28;20440;-63
2024/02/04 08:50:08;;;;;;;2.92;1.40;;;9.20;99.90;;;;;;5052988;28;20213;-65
2024/02/04 08:52:35;;;;;;;4.28;1.52;;;9.20;99.90;;;;;;5053166;28;20225;-63
2024/02/04 08:55:03;;;;;;;3.80;1.10;;;9.20;99.90;;;;;;5058564;28;20202;-63
2024/02/04 08:57:30;;;;;;;5.53;1.30;;;9.20;99.90;;;;;;5062739;28;20240;-62
2024/02/04 08:59:57;;;;;;;3.33;1.50;;;9.20;99.90;;;;;;5063192;28;20201;-62
2024/02/04 09:02:23;;;;;;;2.45;2.08;;;9.20;99.90;;;;;;5058329;28;20229;-60
2024/02/04 09:04:51;;;;;;;6.87;2.53;;;9.20;99.90;;;;;;5058394;28;20234;-62
2024/02/04 09:07:17;;;;;;;3.55;1.80;;;9.20;99.90;;;;;;5058074;28;20209;-63
2024/02/04 09:09:44;;;;;;;4.00;1.40;;;9.20;99.90;;;;;;5057470;28;20209;-64
2024/02/04 09:12:11;;;;;;;4.10;1.35;;;9.20;99.90;;;;;;5058404;28;20856;-63
2024/02/04 09:14:38;;;;;;;5.50;1.50;;;9.20;99.90;;;;;;5057002;28;20198;-63
2024/02/04 09:17:06;;;;;;;7.50;1.57;;;9.20;99.90;;;;;;5057160;28;20213;-63
2024/02/04 09:19:32;;;;;;;8.00;1.63;;;9.20;99.90;;;;;;5057349;28;20455;-63
2024/02/04 09:22:02;;;;;;;6.33;2.00;;;9.10;99.90;;;;;;5057036;28;20463;-63
2024/02/04 09:24:29;;;;;;;5.95;1.48;;;9.10;99.90;;;;;;5057030;28;20531;-63
2024/02/04 09:26:55;;;;;;;5.25;2.60;;;9.10;99.90;;;;;;5058388;28;20198;-62
2024/02/04 09:29:22;;;;;;;6.65;2.15;;;9.10;99.90;;;;;;5057987;28;20201;-62
2024/02/04 09:31:49;;;;;;;6.40;1.80;;;9.10;99.90;;;;;;5056236;28;20711;-63
2024/02/04 09:34:16;;;;;;;6.90;1.73;;;9.10;99.90;;;;;;5056569;28;20230;-62
2024/02/04 09:36:44;;;;;;;5.43;2.13;;;9.20;99.90;;;;;;5055870;28;20547;-63
2024/02/04 09:39:12;;;;;;;4.77;1.40;;;9.20;99.90;;;;;;5056214;28;20826;-60
2024/02/04 09:41:39;;;;;;;6.75;2.00;;;9.20;99.90;;;;;;5056557;28;20456;-63
2024/02/04 09:44:07;;;;;;;5.50;1.87;;;9.20;99.90;;;;;;5056722;28;20225;-62
2024/02/04 09:46:34;;;;;;;6.20;1.52;;;9.20;99.90;;;;;;5056412;28;20440;-63
2024/02/04 09:49:02;;;;;;;3.47;1.43;;;9.20;99.90;;;;;;5056622;28;20202;-63
2024/02/04 09:51:30;;;;;;;4.82;1.35;;;9.20;99.90;;;;;;5056739;28;20472;-62
2024/02/04 09:54:03;;;;;;;2.78;1.40;;;9.20;99.90;;;;;;5056042;28;20225;-63
2024/02/04 09:56:33;;;;;;;2.85;1.67;;;9.20;99.90;;;;;;5056433;28;20199;-64
2024/02/04 09:58:58;;;;;;;4.78;1.70;;;9.20;99.90;;;;;;5056140;28;20209;-63
2024/02/04 10:01:27;;;;;;;5.60;1.67;;;9.20;99.90;;;;;;5055532;28;20604;-62
2024/02/04 10:03:54;;;;;;;3.88;1.55;;;9.20;99.90;;;;;;5056486;28;20225;-63
2024/02/04 10:06:20;;;;;;;5.83;2.23;;;9.20;99.90;;;;;;5055959;28;20580;-63
2024/02/04 10:08:47;;;;;;;4.55;2.17;;;9.10;99.90;;;;;;5056049;28;20440;-63
2024/02/04 10:11:14;;;;;;;5.60;2.33;;;9.20;99.90;;;;;;5056198;28;20225;-63
2024/02/04 10:13:47;;;;;;;5.15;1.70;;;9.20;99.90;;;;;;5056756;28;20231;-63
2024/02/04 10:16:15;;;;;;;6.32;1.98;;;9.20;99.90;;;;;;5056505;28;20209;-62
2024/02/04 10:18:45;;;;;;;5.45;1.73;;;9.20;99.90;;;;;;5055415;28;20278;-63
2024/02/04 10:21:19;;;;;;;4.75;1.80;;;9.20;99.90;;;;;;5055329;28;20232;-63
2024/02/04 10:23:46;;;;;;;5.25;1.85;;;9.20;99.90;;;;;;5055879;28;20198;-63
2024/02/04 10:26:13;;;;;;;8.30;2.22;;;9.20;99.90;;;;;;5055480;28;20202;-62
2024/02/04 10:28:40;;;;;;;6.07;1.90;;;9.10;99.90;;;;;;5055240;28;20264;-61
2024/02/04 10:31:09;;;;;;;5.40;2.00;;;9.10;99.90;;;;;;5057183;28;20496;-62
2024/02/04 10:33:36;;;;;;;8.63;1.80;;;9.10;99.90;;;;;;5057713;28;20484;-63
2024/02/04 10:36:03;;;;;;;5.45;1.83;;;9.10;99.90;;;;;;5055245;28;20584;-62
2024/02/04 10:38:30;;;;;;;5.30;1.80;;;9.20;99.90;;;;;;5055092;28;20630;-61
2024/02/04 10:40:59;;;;;;;5.03;2.17;;;9.30;99.90;;;;;;5055369;28;20209;-63
2024/02/04 10:43:29;;;;;;;2.93;1.67;;;9.30;99.90;;;;;;5055683;28;20436;-63
2024/02/04 10:45:57;;;;;;;8.63;2.63;;;9.40;99.90;;;;;;5055669;28;20451;-62
2024/02/04 10:48:27;;;;;;;3.20;1.90;;;9.40;99.90;;;;;;5055334;28;20212;-63
2024/02/04 10:50:56;;;;;;;5.80;2.00;;;9.40;99.90;;;;;;5056164;28;20209;-62
2024/02/04 10:53:24;;;;;;;8.57;2.10;;;9.50;99.90;;;;;;5055102;28;20908;-63
2024/02/04 10:55:55;;;;;;;8.30;2.60;;;9.50;99.90;;;;;;5055314;28;20440;-63
2024/02/04 10:58:23;;;;;;;12.48;2.65;;;9.50;99.90;;;;;;5054742;28;20436;-62
2024/02/04 11:00:51;;;;;;;8.63;2.27;;;9.50;99.90;;;;;;5055176;28;20206;-63
2024/02/04 11:03:19;;;;;;;4.87;2.20;;;9.50;99.90;;;;;;5054823;28;20428;-62
2024/02/04 11:05:49;;;;;;;4.40;1.95;;;9.50;99.90;;;;;;5054735;28;20953;-63
2024/02/04 11:08:17;;;;;;;5.13;2.90;;;9.50;99.90;;;;;;5054514;28;20644;-63
2024/02/04 11:10:43;;;;;;;4.77;1.93;;;9.60;99.90;;;;;;5054871;28;20551;-63
2024/02/04 11:13:11;;;;;;;3.83;1.70;;;9.70;99.90;;;;;;5054888;28;20476;-63
2024/02/04 11:15:44;;;;;;;5.47;1.90;;;9.70;99.90;;;;;;5055385;28;20789;-62
2024/02/04 11:18:36;;;;;;;3.40;1.93;;;9.80;99.90;;;;;;5054616;28;20924;-62
2024/02/04 11:21:39;;;;;;;5.40;2.03;;;9.90;99.90;;;;;;5053707;28;20456;-63
2024/02/04 11:24:19;;;;;;;6.13;2.80;;;9.90;99.90;;;;;;5037826;28;20808;-62
2024/02/04 11:26:46;;;;;;;6.27;2.40;;;10.00;99.90;;;;;;5056033;28;20924;-63
2024/02/04 11:29:13;;;;;;;3.63;1.90;;;10.00;99.90;;;;;;5058103;28;20448;-62
2024/02/04 11:31:41;;;;;;;5.50;2.47;;;10.00;99.90;;;;;;5058765;28;20874;-63
2024/02/04 11:34:08;;;;;;;3.13;1.57;;;10.00;99.90;;;;;;5055524;28;20494;-61
2024/02/04 11:36:40;;;;;;;5.80;1.63;;;10.00;99.90;;;;;;5054597;28;20455;-63
2024/02/04 11:39:15;;;;;;;7.60;2.10;;;10.00;98.80;;;;;;5055771;28;20424;-62
2024/02/04 11:41:47;;;;;;;4.90;1.70;;;10.00;98.30;;;;;;5053800;28;20464;-61
2024/02/04 11:44:21;;;;;;;5.00;2.27;;;10.00;97.80;;;;;;5054217;28;20417;-63
2024/02/04 11:46:48;;;;;;;5.67;1.90;;;10.00;97.60;;;;;;5054381;28;20431;-64
2024/02/04 11:49:19;;;;;;;5.13;2.17;;;10.10;97.30;;;;;;5053629;28;20999;-63
2024/02/04 11:51:49;;;;;;;3.17;1.67;;;10.10;96.50;;;;;;5054417;28;20468;-63
2024/02/04 11:54:18;;;;;;;3.77;2.07;;;10.20;96.30;;;;;;5054683;28;20472;-63
2024/02/04 11:56:45;;;;;;;5.70;1.50;;;10.20;95.60;;;;;;5054050;28;20440;-63
2024/02/04 11:59:13;;;;;;;2.10;1.53;;;10.20;95.00;;;;;;5054260;28;20818;-63
2024/02/04 12:01:40;;;;;;;3.77;1.63;;;10.20;94.50;;;;;;5053683;28;20479;-63
2024/02/04 12:04:11;;;;;;;4.00;1.40;;;10.20;94.60;;;;;;5054209;28;20949;-63
2024/02/04 12:06:39;;;;;;;7.63;1.93;;;10.30;94.30;;;;;;5054042;28;20497;-64
2024/02/04 12:09:07;;;;;;;5.80;1.80;;;10.30;94.20;;;;;;5053989;28;20440;-62
2024/02/04 12:11:36;;;;;;;4.90;1.70;;;10.30;94.10;;;;;;5054195;28;20563;-61
2024/02/04 12:14:05;;;;;;;1.93;1.30;;;10.30;93.50;;;;;;5055173;28;20480;-64
2024/02/04 12:16:32;;;;;;;4.13;1.67;;;10.30;93.20;;;;;;5054372;28;20472;-63
2024/02/04 12:18:59;;;;;;;4.90;1.80;;;10.30;93.60;;;;;;5053905;28;20458;-63
2024/02/04 12:21:26;;;;;;;4.70;1.40;;;10.20;93.80;;;;;;5054332;28;20464;-63
2024/02/04 12:23:53;;;;;;;8.50;1.83;;;10.20;94.00;;;;;;5053949;28;20448;-63
2024/02/04 12:26:21;;;;;;;5.30;1.90;;;10.20;94.20;;;;;;5053881;28;20466;-63
2024/02/04 12:28:49;;;;;;;5.87;1.67;;;10.20;94.30;;;;;;5054354;28;20451;-63
2024/02/04 12:31:19;;;;;;;4.00;1.50;;;10.10;94.40;;;;;;5053839;28;20464;-63
2024/02/04 12:33:54;;;;;;;2.40;1.17;;;10.10;94.30;;;;;;5056627;28;20472;-62
2024/02/04 12:36:21;;;;;;;4.70;1.60;;;10.10;94.30;;;;;;5057642;28;20906;-64
2024/02/04 12:38:53;;;;;;;6.30;1.87;;;10.00;94.20;;;;;;5057902;28;20946;-63
2024/02/04 12:41:22;;;;;;;6.57;1.83;;;10.00;94.50;;;;;;5057732;28;20460;-63
2024/02/04 12:43:51;;;;;;;2.90;1.30;;;10.00;94.80;;;;;;5057556;28;20455;-63
2024/02/04 12:46:18;;;;;;;5.20;1.60;;;10.00;94.80;;;;;;5057595;28;20786;-63
2024/02/04 12:48:45;;;;;;;3.90;1.80;;;9.90;95.50;;;;;;5060416;28;20447;-63
2024/02/04 12:51:12;;;;;;;2.60;1.30;;;9.90;95.30;;;;;;5060148;28;20479;-63
2024/02/04 12:53:39;;;;;;;6.40;1.70;;;9.90;95.50;;;;;;5059802;28;20483;-63
2024/02/04 12:56:07;;;;;;;4.13;1.40;;;9.80;95.70;;;;;;5057328;28;20518;-63
2024/02/04 12:58:43;;;;;;;3.77;1.47;;;9.80;96.00;;;;;;5057610;28;20531;-64